createdAt,value
2022-09-15T00:01:15.480Z,20.30
2022-09-15T00:03:45.814Z,20.31
2022-09-15T00:06:16.036Z,20.31
2022-09-15T00:08:47.303Z,20.29
2022-09-15T00:11:22.380Z,20.28
2022-09-15T00:13:53.959Z,20.27
2022-09-15T00:16:28.934Z,20.24
2022-09-15T00:18:58.838Z,20.26
2022-09-15T00:21:32.656Z,20.24
2022-09-15T00:24:04.062Z,20.24
2022-09-15T00:26:34.516Z,20.24
2022-09-15T00:29:04.823Z,20.24
2022-09-15T00:31:37.314Z,20.20
2022-09-15T00:34:08.040Z,20.21
2022-09-15T00:36:38.046Z,20.18
2022-09-15T00:39:08.013Z,20.16
2022-09-15T00:41:37.880Z,20.17
2022-09-15T00:44:28.916Z,20.14
2022-09-15T00:47:18.679Z,20.17
2022-09-15T00:49:58.424Z,20.16
2022-09-15T00:52:35.125Z,20.16
2022-09-15T00:55:08.868Z,20.11
2022-09-15T00:57:42.831Z,20.07
2022-09-15T01:00:16.801Z,20.06
2022-09-15T01:02:50.929Z,20.06
2022-09-15T01:05:24.316Z,20.04
2022-09-15T01:07:57.832Z,20.03
2022-09-15T01:10:31.254Z,19.98
2022-09-15T01:13:05.137Z,19.95
2022-09-15T01:15:43.043Z,19.91
2022-09-15T01:18:23.385Z,19.92
2022-09-15T01:21:02.421Z,19.92
2022-09-15T01:24:07.280Z,19.92
2022-09-15T01:27:30.601Z,19.93
2022-09-15T01:30:12.946Z,19.92
2022-09-15T01:33:08.915Z,19.89
2022-09-15T01:35:59.060Z,19.86
2022-09-15T01:38:39.673Z,19.83
2022-09-15T01:41:17.784Z,19.79
2022-09-15T01:43:54.035Z,19.76
2022-09-15T01:46:29.086Z,19.74
2022-09-15T01:49:01.385Z,19.74
2022-09-15T01:51:34.114Z,19.71
2022-09-15T01:54:07.742Z,19.67
2022-09-15T01:56:41.991Z,19.65
2022-09-15T01:59:12.441Z,19.64
2022-09-15T02:01:52.253Z,19.63
2022-09-15T02:04:31.171Z,19.63
2022-09-15T02:07:06.594Z,19.63
2022-09-15T02:09:43.244Z,19.63
2022-09-15T02:12:20.031Z,19.61
2022-09-15T02:14:57.865Z,19.61
2022-09-15T02:17:32.816Z,19.61
2022-09-15T02:20:11.573Z,19.62
2022-09-15T02:22:44.080Z,19.61
2022-09-15T02:25:17.487Z,19.60
2022-09-15T02:27:50.325Z,19.61
2022-09-15T02:30:22.510Z,19.61
2022-09-15T02:32:58.985Z,19.61
2022-09-15T02:35:31.303Z,19.62
2022-09-15T02:38:02.890Z,19.63
2022-09-15T02:40:33.951Z,19.62
2022-09-15T02:43:05.964Z,19.62
2022-09-15T02:45:36.262Z,19.61
2022-09-15T02:48:09.523Z,19.59
2022-09-15T02:50:39.746Z,19.57
2022-09-15T02:53:10.557Z,19.56
2022-09-15T02:55:40.410Z,19.56
2022-09-15T02:58:10.905Z,19.54
2022-09-15T03:00:42.832Z,19.53
2022-09-15T03:03:15.809Z,19.50
2022-09-15T03:05:46.308Z,19.49
2022-09-15T03:08:16.820Z,19.48
2022-09-15T03:10:46.592Z,19.49
2022-09-15T03:13:16.454Z,19.49
2022-09-15T03:15:46.208Z,19.52
2022-09-15T03:18:21.631Z,19.52
2022-09-15T03:20:51.579Z,19.52
2022-09-15T03:23:21.638Z,19.54
2022-09-15T03:25:53.313Z,19.54
2022-09-15T03:28:23.117Z,19.54
2022-09-15T03:30:53.002Z,19.51
2022-09-15T03:33:26.152Z,19.50
2022-09-15T03:35:57.214Z,19.49
2022-09-15T03:38:27.160Z,19.47
2022-09-15T03:41:05.056Z,19.45
2022-09-15T03:43:35.422Z,19.43
2022-09-15T03:46:08.298Z,19.36
2022-09-15T03:48:44.020Z,19.35
2022-09-15T03:51:14.718Z,19.33
2022-09-15T03:53:46.177Z,19.30
2022-09-15T03:56:24.311Z,19.28
2022-09-15T03:58:55.384Z,19.24
2022-09-15T04:01:26.210Z,19.24
2022-09-15T04:03:59.694Z,19.22
2022-09-15T04:06:32.822Z,19.21
2022-09-15T04:09:03.108Z,19.20
2022-09-15T04:11:34.102Z,19.16
2022-09-15T04:14:04.076Z,19.15
2022-09-15T04:16:34.047Z,19.13
2022-09-15T04:19:07.558Z,19.09
2022-09-15T04:21:37.601Z,19.09
2022-09-15T04:24:08.274Z,19.07
2022-09-15T04:26:39.989Z,19.06
2022-09-15T04:29:17.683Z,18.99
2022-09-15T04:31:48.859Z,18.98
2022-09-15T04:34:21.560Z,18.95
2022-09-15T04:36:51.478Z,18.96
2022-09-15T04:39:21.285Z,18.95
2022-09-15T04:41:51.154Z,18.96
2022-09-15T04:44:23.965Z,18.96
2022-09-15T04:46:57.701Z,18.94
2022-09-15T04:49:31.901Z,18.93
2022-09-15T04:52:01.853Z,18.94
2022-09-15T04:54:31.858Z,18.95
2022-09-15T04:57:01.745Z,18.96
2022-09-15T04:59:31.879Z,18.95
2022-09-15T05:02:02.427Z,18.95
2022-09-15T05:04:35.045Z,18.92
2022-09-15T05:07:05.079Z,18.90
2022-09-15T05:09:34.831Z,18.90
2022-09-15T05:12:05.042Z,18.86
2022-09-15T05:14:35.668Z,18.86
2022-09-15T05:17:05.824Z,18.87
2022-09-15T05:19:38.675Z,18.89
2022-09-15T05:22:08.619Z,18.94
2022-09-15T05:24:41.327Z,19.00
2022-09-15T05:27:11.463Z,19.10
2022-09-15T05:29:41.227Z,19.19
2022-09-15T05:32:11.011Z,19.27
2022-09-15T05:34:43.829Z,19.35
2022-09-15T05:37:14.413Z,19.43
2022-09-15T05:39:44.314Z,19.52
2022-09-15T05:42:14.349Z,19.61
2022-09-15T05:44:44.185Z,19.70
2022-09-15T05:47:14.303Z,19.76
2022-09-15T05:49:46.903Z,19.78
2022-09-15T05:52:16.803Z,19.85
2022-09-15T05:54:46.980Z,19.92
2022-09-15T05:57:16.777Z,19.93
2022-09-15T05:59:46.598Z,20.03
2022-09-15T06:02:16.919Z,20.18
2022-09-15T06:04:49.395Z,20.17
2022-09-15T06:07:19.664Z,20.07
2022-09-15T06:09:49.919Z,20.04
2022-09-15T06:12:20.478Z,20.17
2022-09-15T06:14:51.190Z,20.34
2022-09-15T06:17:22.388Z,20.38
2022-09-15T06:19:55.273Z,20.41
2022-09-15T06:22:25.869Z,20.42
2022-09-15T06:24:55.781Z,20.37
2022-09-15T06:27:25.927Z,20.30
2022-09-15T06:29:55.829Z,20.28
2022-09-15T06:32:25.731Z,20.30
2022-09-15T06:34:58.317Z,20.27
2022-09-15T06:37:28.483Z,20.27
2022-09-15T06:39:58.650Z,20.41
2022-09-15T06:42:28.712Z,20.54
2022-09-15T06:44:58.984Z,20.59
2022-09-15T06:47:33.893Z,20.59
2022-09-15T06:50:07.073Z,20.70
2022-09-15T06:52:37.280Z,20.73
2022-09-15T06:55:08.237Z,20.72
2022-09-15T06:57:38.496Z,20.76
2022-09-15T07:00:10.336Z,20.82
2022-09-15T07:02:40.505Z,20.88
2022-09-15T07:05:14.259Z,20.87
2022-09-15T07:07:44.068Z,20.88
2022-09-15T07:10:14.098Z,20.89
2022-09-15T07:12:46.246Z,20.91
2022-09-15T07:15:16.269Z,20.86
2022-09-15T07:17:46.058Z,20.83
2022-09-15T07:20:19.154Z,20.82
2022-09-15T07:22:49.428Z,20.83
2022-09-15T07:25:19.611Z,20.81
2022-09-15T07:27:49.774Z,20.81
2022-09-15T07:30:19.850Z,20.79
2022-09-15T07:32:49.824Z,20.79
2022-09-15T07:35:22.609Z,20.78
2022-09-15T07:37:52.433Z,20.83
2022-09-15T07:40:22.367Z,20.87
2022-09-15T07:42:52.246Z,20.88
2022-09-15T07:45:22.345Z,20.89
2022-09-15T07:47:52.311Z,20.92
2022-09-15T07:50:25.228Z,20.92
2022-09-15T07:52:58.227Z,20.92
2022-09-15T07:55:30.440Z,20.90
2022-09-15T07:58:01.199Z,20.90
2022-09-15T08:00:31.864Z,20.90
2022-09-15T08:03:02.402Z,20.92
2022-09-15T08:05:39.453Z,20.98
2022-09-15T08:08:11.415Z,21.05
2022-09-15T08:10:42.717Z,21.03
2022-09-15T08:13:13.213Z,20.99
2022-09-15T08:15:46.306Z,20.94
2022-09-15T08:18:31.454Z,20.90
2022-09-15T08:21:07.378Z,20.89
2022-09-15T08:23:38.423Z,20.98
2022-09-15T08:26:13.626Z,21.07
2022-09-15T08:28:47.424Z,21.19
2022-09-15T08:31:18.602Z,21.25
2022-09-15T08:33:51.823Z,21.32
2022-09-15T08:36:28.194Z,21.33
2022-09-15T08:38:58.884Z,21.30
2022-09-15T08:41:32.607Z,21.32
2022-09-15T08:44:16.238Z,21.37
2022-09-15T08:46:53.887Z,21.38
2022-09-15T08:49:47.803Z,21.43
2022-09-15T08:52:26.014Z,21.51
2022-09-15T08:54:58.995Z,21.57
2022-09-15T08:57:29.285Z,21.54
2022-09-15T08:59:59.690Z,21.50
2022-09-15T09:02:49.451Z,21.49
2022-09-15T09:05:33.055Z,21.48
2022-09-15T09:08:33.989Z,21.50
2022-09-15T09:11:13.914Z,21.46
2022-09-15T09:13:50.162Z,21.40
2022-09-15T09:16:45.440Z,21.40
2022-09-15T09:19:33.774Z,21.43
2022-09-15T09:22:11.276Z,21.44
2022-09-15T09:24:47.124Z,21.40
2022-09-15T09:27:20.879Z,21.35
2022-09-15T09:29:53.127Z,21.34
2022-09-15T09:32:27.481Z,21.36
2022-09-15T09:35:03.936Z,21.41
2022-09-15T09:37:36.302Z,21.47
2022-09-15T09:40:10.525Z,21.55
2022-09-15T09:42:40.998Z,21.64
2022-09-15T09:45:16.247Z,21.69
2022-09-15T09:47:48.203Z,21.80
2022-09-15T09:50:35.042Z,21.88
2022-09-15T09:53:21.654Z,21.96
2022-09-15T09:55:55.643Z,21.97
2022-09-15T09:58:28.231Z,22.09
2022-09-15T10:01:13.122Z,22.25
2022-09-15T10:03:45.668Z,22.45
2022-09-15T10:06:18.674Z,22.59
2022-09-15T10:08:58.902Z,22.66
2022-09-15T10:11:48.598Z,22.80
2022-09-15T10:14:29.445Z,22.94
2022-09-15T10:17:04.890Z,22.97
2022-09-15T10:19:39.079Z,22.93
2022-09-15T10:22:09.019Z,22.83
2022-09-15T10:24:42.662Z,22.73
2022-09-15T10:27:28.784Z,23.08
2022-09-15T10:30:01.738Z,23.27
2022-09-15T10:32:33.305Z,23.23
2022-09-15T10:35:06.437Z,23.12
2022-09-15T10:37:46.818Z,23.06
2022-09-15T10:40:35.790Z,23.04
2022-09-15T10:43:27.535Z,23.30
2022-09-15T10:46:05.203Z,24.11
2022-09-15T10:49:04.599Z,24.83
2022-09-15T10:51:47.004Z,25.45
2022-09-15T10:54:51.221Z,26.18
2022-09-15T10:57:39.023Z,27.14
2022-09-15T11:00:15.218Z,27.33
2022-09-15T11:03:16.161Z,26.85
2022-09-15T11:05:56.320Z,27.65
2022-09-15T11:08:59.635Z,27.52
2022-09-15T11:11:43.355Z,27.75
2022-09-15T11:14:30.259Z,28.46
2022-09-15T11:17:17.862Z,28.72
2022-09-15T11:20:12.465Z,28.30
2022-09-15T11:22:51.059Z,27.79
2022-09-15T11:25:24.469Z,27.16
2022-09-15T11:27:58.400Z,26.62
2022-09-15T11:30:36.095Z,26.18
2022-09-15T11:33:15.090Z,25.96
2022-09-15T11:35:49.231Z,25.75
2022-09-15T11:38:37.230Z,25.67
2022-09-15T11:41:21.348Z,26.06
2022-09-15T11:44:06.220Z,26.96
2022-09-15T11:46:57.484Z,27.53
2022-09-15T11:49:34.659Z,27.26
2022-09-15T11:52:11.077Z,27.03
2022-09-15T11:54:48.077Z,28.02
2022-09-15T11:57:23.602Z,28.28
2022-09-15T12:00:00.554Z,27.59
2022-09-15T12:02:35.954Z,26.76
2022-09-15T12:05:15.163Z,25.92
2022-09-15T12:07:51.526Z,25.25
2022-09-15T12:10:26.351Z,24.80
2022-09-15T12:13:00.657Z,24.42
2022-09-15T12:15:31.331Z,24.09
2022-09-15T12:18:37.134Z,23.77
2022-09-15T12:21:18.910Z,23.53
2022-09-15T12:23:58.198Z,23.54
2022-09-15T12:26:30.109Z,23.66
2022-09-15T12:29:02.583Z,23.62
2022-09-15T12:31:40.484Z,24.14
2022-09-15T12:34:38.585Z,25.51
2022-09-15T12:37:16.736Z,27.07
2022-09-15T12:39:48.696Z,27.46
2022-09-15T12:42:23.646Z,27.47
2022-09-15T12:44:56.483Z,27.14
2022-09-15T12:47:41.139Z,26.87
2022-09-15T12:50:27.503Z,26.70
2022-09-15T12:53:02.745Z,26.62
2022-09-15T12:55:38.012Z,26.47
2022-09-15T12:58:12.612Z,26.25
2022-09-15T13:04:04.832Z,25.85
2022-09-15T13:06:36.236Z,25.63
2022-09-15T13:09:31.596Z,25.20
2022-09-15T13:12:02.809Z,24.83
2022-09-15T13:14:42.289Z,24.50
2022-09-15T13:17:22.808Z,24.22
2022-09-15T13:19:57.664Z,24.01
2022-09-15T13:22:33.499Z,23.90
2022-09-15T13:25:17.410Z,23.85
2022-09-15T13:27:50.496Z,23.84
2022-09-15T13:30:40.497Z,23.88
2022-09-15T13:35:03.184Z,23.96
2022-09-15T13:39:54.433Z,23.98
2022-09-15T13:42:51.934Z,23.91
2022-09-15T13:45:40.743Z,23.83
2022-09-15T13:51:03.912Z,23.71
2022-09-15T13:53:46.221Z,23.67
2022-09-15T13:56:22.554Z,23.63
2022-09-15T13:58:59.907Z,23.60
2022-09-15T14:01:39.020Z,23.58
2022-09-15T14:04:14.869Z,23.53
2022-09-15T14:06:47.486Z,23.46
2022-09-15T14:09:21.318Z,23.43
2022-09-15T14:11:55.413Z,23.39
2022-09-15T14:14:40.068Z,23.34
2022-09-15T14:17:22.628Z,23.29
2022-09-15T14:19:54.534Z,23.28
2022-09-15T14:22:29.066Z,23.25
2022-09-15T14:25:00.193Z,23.23
2022-09-15T14:27:32.244Z,23.20
2022-09-15T14:30:07.913Z,23.22
2022-09-15T14:32:42.235Z,23.22
2022-09-15T14:35:20.121Z,23.26
2022-09-15T14:37:51.947Z,23.27
2022-09-15T14:40:27.325Z,23.27
2022-09-15T14:42:58.420Z,23.22
2022-09-15T14:48:31.087Z,23.05
2022-09-15T14:51:05.456Z,22.98
2022-09-15T14:53:39.398Z,22.94
2022-09-15T14:56:18.235Z,22.92
2022-09-15T14:58:53.264Z,22.89
2022-09-15T15:01:30.753Z,22.89
2022-09-15T15:04:10.322Z,22.45
2022-09-15T15:06:43.993Z,22.65
2022-09-15T15:09:25.617Z,22.70
2022-09-15T15:12:01.773Z,22.73
2022-09-15T15:14:31.903Z,22.76
2022-09-15T15:17:07.063Z,22.77
2022-09-15T15:19:39.687Z,22.80
2022-09-15T15:22:17.425Z,22.79
2022-09-15T15:24:50.213Z,22.76
2022-09-15T15:27:41.828Z,22.71
2022-09-15T15:30:37.068Z,22.70
2022-09-15T15:33:22.049Z,22.62
2022-09-15T15:36:04.871Z,22.60
2022-09-15T15:38:38.030Z,22.57
2022-09-15T15:41:10.858Z,22.51
2022-09-15T15:43:40.781Z,22.48
2022-09-15T15:46:12.649Z,22.43
2022-09-15T15:48:45.287Z,22.42
2022-09-15T15:51:15.144Z,22.39
2022-09-15T15:53:45.220Z,22.35
2022-09-15T15:56:16.082Z,22.29
2022-09-15T15:58:45.972Z,22.27
2022-09-15T16:01:15.928Z,22.23
2022-09-15T16:03:48.347Z,22.21
2022-09-15T16:06:18.338Z,22.21
2022-09-15T16:08:49.107Z,22.18
2022-09-15T16:11:20.983Z,22.18
2022-09-15T16:13:51.068Z,22.17
2022-09-15T16:16:22.771Z,22.15
2022-09-15T16:18:55.673Z,22.14
2022-09-15T16:21:32.472Z,22.13
2022-09-15T16:24:02.566Z,22.11
2022-09-15T16:26:34.604Z,22.10
2022-09-15T16:29:04.777Z,22.10
2022-09-15T16:31:36.410Z,22.07
2022-09-15T16:34:09.043Z,22.03
2022-09-15T16:36:39.066Z,22.01
2022-09-15T16:39:09.081Z,21.98
2022-09-15T16:41:40.386Z,21.97
2022-09-15T16:44:20.596Z,21.92
2022-09-15T16:46:50.554Z,21.92
2022-09-15T16:49:23.156Z,21.88
2022-09-15T16:51:53.078Z,21.85
2022-09-15T16:54:23.631Z,21.78
2022-09-15T16:56:54.135Z,21.73
2022-09-15T16:59:24.031Z,21.71
2022-09-15T17:01:54.163Z,21.71
2022-09-15T17:04:27.361Z,21.70
2022-09-15T17:06:57.235Z,21.69
2022-09-15T17:09:27.564Z,21.65
2022-09-15T17:11:58.514Z,21.62
2022-09-15T17:14:28.324Z,21.56
2022-09-15T17:16:58.393Z,21.54
2022-09-15T17:19:33.224Z,21.50
2022-09-15T17:22:04.884Z,21.49
2022-09-15T17:24:34.728Z,21.50
2022-09-15T17:27:04.786Z,21.49
2022-09-15T17:29:34.937Z,21.48
2022-09-15T17:32:05.821Z,21.45
2022-09-15T17:34:39.085Z,21.41
2022-09-15T17:37:09.446Z,21.40
2022-09-15T17:39:40.889Z,21.37
2022-09-15T17:42:12.468Z,21.31
2022-09-15T17:44:42.535Z,21.31
2022-09-15T17:47:15.725Z,21.29
2022-09-15T17:49:48.470Z,21.30
2022-09-15T17:52:18.561Z,21.33
2022-09-15T17:54:48.359Z,21.34
2022-09-15T17:57:18.168Z,21.34
2022-09-15T17:59:48.358Z,21.35
2022-09-15T18:02:21.464Z,21.32
2022-09-15T18:04:54.175Z,21.34
2022-09-15T18:07:25.405Z,21.35
2022-09-15T18:09:58.364Z,21.33
2022-09-15T18:12:28.497Z,21.32
2022-09-15T18:14:58.956Z,21.30
2022-09-15T18:17:28.949Z,21.27
2022-09-15T18:20:05.027Z,21.26
2022-09-15T18:22:35.156Z,21.23
2022-09-15T18:25:05.225Z,21.17
2022-09-15T18:27:36.103Z,21.15
2022-09-15T18:30:06.669Z,21.10
2022-09-15T18:32:39.566Z,21.08
2022-09-15T18:35:18.599Z,21.06
2022-09-15T18:37:49.598Z,21.05
2022-09-15T18:40:21.667Z,21.00
2022-09-15T18:42:51.525Z,20.99
2022-09-15T18:45:22.249Z,20.98
2022-09-15T18:47:56.527Z,20.98
2022-09-15T18:50:28.916Z,20.99
2022-09-15T18:53:02.335Z,20.95
2022-09-15T18:55:32.702Z,20.94
2022-09-15T18:58:02.835Z,20.92
2022-09-15T19:00:33.091Z,20.89
2022-09-15T19:03:27.205Z,20.84
2022-09-15T19:06:05.267Z,20.84
2022-09-15T19:08:40.332Z,20.83
2022-09-15T19:11:10.804Z,20.81
2022-09-15T19:13:42.953Z,20.79
2022-09-15T19:16:12.927Z,20.77
2022-09-15T19:18:44.954Z,20.77
2022-09-15T19:21:17.535Z,20.76
2022-09-15T19:23:49.987Z,20.74
2022-09-15T19:26:20.607Z,20.71
2022-09-15T19:28:55.865Z,20.70
2022-09-15T19:31:26.823Z,20.71
2022-09-15T19:33:57.130Z,20.75
2022-09-15T19:36:29.750Z,20.74
2022-09-15T19:39:02.825Z,20.75
2022-09-15T19:41:37.798Z,20.75
2022-09-15T19:44:10.655Z,20.72
2022-09-15T19:46:41.445Z,20.69
2022-09-15T19:49:11.675Z,20.67
2022-09-15T19:51:44.932Z,20.65
2022-09-15T19:54:15.775Z,20.67
2022-09-15T19:56:46.240Z,20.65
2022-09-15T19:59:16.085Z,20.61
2022-09-15T20:02:05.062Z,20.57
2022-09-15T20:04:34.829Z,20.56
2022-09-15T20:07:07.704Z,20.53
2022-09-15T20:09:40.750Z,20.57
2022-09-15T20:12:10.814Z,20.58
2022-09-15T20:14:40.769Z,20.58
2022-09-15T20:17:13.674Z,20.58
2022-09-15T20:19:43.741Z,20.58
2022-09-15T20:22:16.461Z,20.56
2022-09-15T20:24:46.375Z,20.53
2022-09-15T20:27:16.700Z,20.54
2022-09-15T20:29:46.558Z,20.56
2022-09-15T20:32:17.456Z,20.53
2022-09-15T20:34:47.258Z,20.53
2022-09-15T20:37:22.426Z,20.50
2022-09-15T20:39:52.496Z,20.51
2022-09-15T20:42:22.331Z,20.49
2022-09-15T20:44:54.593Z,20.46
2022-09-15T20:47:24.526Z,20.45
2022-09-15T20:49:54.947Z,20.41
2022-09-15T20:52:29.685Z,20.36
2022-09-15T20:54:59.602Z,20.36
2022-09-15T20:57:29.397Z,20.29
2022-09-15T20:59:59.268Z,20.29
2022-09-15T21:02:29.046Z,20.29
2022-09-15T21:04:59.074Z,20.30
2022-09-15T21:07:31.951Z,20.25
2022-09-15T21:10:01.987Z,20.26
2022-09-15T21:12:32.044Z,20.24
2022-09-15T21:15:05.712Z,20.21
2022-09-15T21:17:36.201Z,20.19
2022-09-15T21:20:08.896Z,20.18
2022-09-15T21:22:41.585Z,20.15
2022-09-15T21:25:11.759Z,20.13
2022-09-15T21:27:42.450Z,20.12
2022-09-15T21:30:14.798Z,20.10
2022-09-15T21:32:45.012Z,20.10
2022-09-15T21:35:15.331Z,20.08
2022-09-15T21:37:48.167Z,20.05
2022-09-15T21:40:18.576Z,20.06
2022-09-15T21:42:48.444Z,20.07
2022-09-15T21:45:18.435Z,20.06
2022-09-15T21:47:48.215Z,20.08
2022-09-15T21:50:19.049Z,20.09
2022-09-15T21:52:51.583Z,20.12
2022-09-15T21:55:21.599Z,20.12
2022-09-15T21:57:51.489Z,20.12
2022-09-15T22:00:21.334Z,20.13
2022-09-15T22:02:54.151Z,20.12
2022-09-15T22:05:23.971Z,20.12
2022-09-15T22:08:00.417Z,20.12
2022-09-15T22:10:32.999Z,20.09
2022-09-15T22:13:03.198Z,20.06
2022-09-15T22:15:33.547Z,20.00
2022-09-15T22:18:04.045Z,19.97
2022-09-15T22:20:34.131Z,19.97
2022-09-15T22:23:06.822Z,19.95
2022-09-15T22:25:36.779Z,19.95
2022-09-15T22:28:06.766Z,19.94
2022-09-15T22:30:37.077Z,19.91
2022-09-15T22:33:07.226Z,19.88
2022-09-15T22:35:37.271Z,19.85
2022-09-15T22:38:09.911Z,19.84
2022-09-15T22:40:39.848Z,19.83
2022-09-15T22:43:09.673Z,19.82
2022-09-15T22:45:39.483Z,19.80
2022-09-15T22:48:09.774Z,19.78
2022-09-15T22:50:39.720Z,19.74
2022-09-15T22:53:15.695Z,19.75
2022-09-15T22:55:45.485Z,19.74
2022-09-15T22:58:15.582Z,19.71
2022-09-15T23:00:45.914Z,19.69
2022-09-15T23:03:16.046Z,19.65
2022-09-15T23:05:45.938Z,19.64
2022-09-15T23:08:18.642Z,19.62
2022-09-15T23:10:49.104Z,19.63
2022-09-15T23:13:20.271Z,19.61
2022-09-15T23:15:51.945Z,19.58
2022-09-15T23:18:21.974Z,19.56
2022-09-15T23:20:57.868Z,19.54
2022-09-15T23:23:34.216Z,19.53
2022-09-15T23:28:49.306Z,19.53
2022-09-15T23:31:22.311Z,19.49
2022-09-15T23:33:52.460Z,19.49
2022-09-15T23:36:22.547Z,19.45
2022-09-15T23:38:55.134Z,19.44
2022-09-15T23:41:25.119Z,19.41
2022-09-15T23:43:55.977Z,19.36
2022-09-15T23:46:25.934Z,19.35
2022-09-15T23:48:55.862Z,19.34
2022-09-15T23:51:27.414Z,19.35
2022-09-15T23:54:02.186Z,19.35
2022-09-15T23:56:33.868Z,19.37
2022-09-15T23:59:03.941Z,19.34
